• Join FlightAware (Why Join?)
  • Login
  • US Flag 
09:25AM EDT


 

Airport Tracker/Info


-or-


 

Live Flight TrackerFlight Track Log ✈ EJA951 ✈ 21-Mar-2014 ✈ KTEB - KIND

Flight Track Log - Related Links

Times and Time Zones

All times are in EDT time to prevent confusion due to time zone crossing. See the EJA951 flight status page for this flight to view local times or setup timezone preferences in your user account.

Time Position Orientation Groundspeed Altitude Reporting Facility
EDT Latitude Longitude Course Direction KTS MPH feet Rate Location/Type
01:50PM 40.8167 -74.1333 252° West 206 237 1,500  Level New York TRACON
01:51PM 40.8000 -74.2000 252° West 241 277 4,300 3,960 Climbing New York TRACON
01:52PM 40.7833 -74.2833 255° West 255 293 9,100 3,060 Climbing New York TRACON
01:54PM 40.7833 -74.4572 270° West 326 375 12,300 2,160 Climbing New York Center
01:55PM 40.7861 -74.5614 272° West 333 383 14,700 2,340 Climbing New York Center
01:56PM 40.7922 -74.6961 273° West 333 383 17,000 2,100 Climbing New York Center
01:57PM 40.7967 -74.8086 273° West 338 389 19,000 1,920 Climbing New York Center
01:58PM 40.7817 -74.9394 261° West 349 402 20,900 2,340 Climbing New York Center
01:59PM 40.7417 -75.0683 248° West 359 413 23,700 2,760 Climbing New York Center
02:00PM 40.7017 -75.1919 247° West 366 421 26,500 2,280 Climbing New York Center
02:01PM 40.6617 -75.3178 247° West 371 427 28,300 2,160 Climbing New York Center
02:02PM 40.6142 -75.4622 247° West 376 433 30,900 1,920 Climbing New York Center
02:03PM 40.5711 -75.5986 247° West 397 457 32,200 1,500 Climbing New York Center
02:04PM 40.5258 -75.7403 247° West 412 474 34,000 1,440 Climbing New York Center
02:05PM 40.4800 -75.8844 247° West 424 488 35,100 1,020 Climbing New York Center
02:06PM 40.4322 -76.0200 245° Southwest 434 499 36,100 960 Climbing New York Center
02:07PM 40.3861 -76.1664 248° West 439 505 37,100 960 Climbing New York Center
02:08PM 40.3481 -76.3158 252° West 445 512 38,100 960 Climbing New York Center
02:09PM 40.3356 -76.4864 265° West 424 488 39,100 900 Climbing New York Center
02:10PM 40.3278 -76.6464 266° West 430 495 40,000 420 Climbing New York Center
02:11PM 40.3161 -76.7981 264° West 435 501 40,000  Level New York Center
02:12PM 40.3094 -76.9661 267° West 441 507 40,000  Level New York Center
02:13PM 40.2989 -77.1258 265° West 446 513 40,000  Level New York Center
02:14PM 40.2900 -77.2883 266° West 446 513 40,000  Level New York Center
02:15PM 40.2808 -77.4536 266° West 451 519 40,000  Level New York Center
02:17PM 40.2642 -77.7072 265° West 456 525 40,000  Level Cleveland Center
02:18PM 40.2772 -77.8703 276° West 456 525 40,000  Level Cleveland Center
02:19PM 40.3142 -78.0444 286° West 457 526 40,000  Level Cleveland Center
02:20PM 40.3483 -78.2058 286° West 457 526 40,000  Level Cleveland Center
02:21PM 40.3750 -78.3686 282° West 458 527 40,000  Level Cleveland Center
02:22PM 40.3772 -78.5694 271° West 458 527 40,000  Level Cleveland Center
02:23PM 40.3783 -78.7333 271° West 456 525 40,000  Level Cleveland Center
02:24PM 40.3803 -78.8964 271° West 453 521 40,000  Level Cleveland Center
02:25PM 40.3811 -79.0578 270° West 446 513 40,000  Level Cleveland Center
02:26PM 40.3811 -79.2178 270° West 445 512 40,000  Level Cleveland Center
02:27PM 40.3822 -79.3886 271° West 446 513 40,000  Level Cleveland Center
02:28PM 40.3819 -79.5525 270° West 447 514 40,000  Level Cleveland Center
02:29PM 40.3814 -79.7492 270° West 450 518 40,000  Level Cleveland Center
02:30PM 40.3806 -79.9153 270° West 453 521 40,000  Level Cleveland Center
02:32PM 40.3817 -80.2408 270° West 460 529 40,000  Level Cleveland Center
02:33PM 40.3792 -80.4367 269° West 465 535 40,000  Level Cleveland Center
02:34PM 40.3783 -80.6069 270° West 468 539 40,000  Level Cleveland Center
02:35PM 40.3764 -80.7753 269° West 466 536 40,000  Level Cleveland Center
02:36PM 40.3750 -80.9417 269° West 463 533 40,000  Level Cleveland Center
02:37PM 40.3722 -81.1053 269° West 454 522 40,000  Level Cleveland Center
02:38PM 40.3692 -81.3011 269° West 451 519 40,000  Level Cleveland Center
02:39PM 40.3672 -81.4675 269° West 446 513 40,000  Level Cleveland Center
02:40PM 40.3642 -81.6303 269° West 444 511 40,000  Level Cleveland Center
02:41PM 40.3611 -81.7911 269° West 442 509 40,000 -360 Level Cleveland Center
02:42PM 40.3581 -81.9525 269° West 441 507 39,300 -900 Descending Cleveland Center
02:44PM 40.3550 -82.1147 269° West 441 507 38,200 -1,020 Descending Cleveland Center
02:45PM 40.3503 -82.2794 268° West 444 511 37,200 -1,200 Descending Cleveland Center
02:46PM 40.3475 -82.4494 269° West 388 447 35,700 -1,440 Descending Cleveland Center
02:47PM 40.3433 -82.5800 268° West 362 417 34,300 -1,020 Descending Cleveland Center
02:48PM 40.3392 -82.7189 268° West 379 436 33,700 -1,260 Descending Cleveland Center
02:49PM 40.3350 -82.8575 268° West 381 438 31,800 -1,800 Descending Cleveland Center
02:50PM 40.3325 -83.0039 269° West 401 461 30,000 -900 Descending Cleveland Center
02:51PM 40.3272 -83.1528 267° West 410 472 30,000  Level Cleveland Center
02:52PM 40.3219 -83.3319 268° West 411 473 30,000  Level Cleveland Center
02:53PM 40.3169 -83.4817 268° West 416 479 30,000  Level Cleveland Center
02:54PM 40.3125 -83.6308 268° West 416 479 30,000  Level Cleveland Center
02:55PM 40.3069 -83.7808 267° West 416 479 30,000  Level Cleveland Center
02:56PM 40.3000 -83.9606 267° West 416 479 30,000  Level Cleveland Center
02:57PM 40.2922 -84.1719 267° West 415 478 30,000  Level Indianapolis Center
02:58PM 40.2850 -84.3222 266° West 415 478 30,000 -240 Level Indianapolis Center
02:59PM 40.2789 -84.4725 267° West 415 478 29,600 -780 Descending Indianapolis Center
03:00PM 40.2728 -84.6189 267° West 410 472 28,400 -1,320 Descending Indianapolis Center
03:02PM 40.2664 -84.7681 267° West 409 471 26,900 -1,500 Descending Indianapolis Center
03:03PM 40.2597 -84.9294 267° West 414 476 25,300 -1,500 Descending Indianapolis Center
03:04PM 40.2517 -85.0758 266° West 409 471 23,900 -2,040 Descending Indianapolis Center
03:05PM 40.2439 -85.2464 267° West 398 458 21,100 -2,700 Descending Indianapolis Center
03:06PM 40.2361 -85.3808 266° West 378 435 18,400 -2,520 Descending Indianapolis Center
03:07PM 40.1928 -85.4953 244° Southwest 355 409 15,900 -2,280 Descending Indianapolis Center
03:08PM 40.1497 -85.5953 241° Southwest 325 374 13,700 -2,100 Descending Indianapolis Center
03:09PM 40.1114 -85.6850 241° Southwest 293 337 11,600 -1,740 Descending Indianapolis Center
03:10PM 40.0736 -85.7719 240° Southwest 281 323 10,200 -1,320 Descending Indianapolis Center
03:11PM 40.0300 -85.8683 239° Southwest 262 302 8,900 -1,440 Descending Indianapolis Center
03:12PM 39.9856 -85.9406 231° Southwest 259 298 7,300 -1,560 Descending Indianapolis Center
03:13PM 39.9364 -86.0008 223° Southwest 250 288 5,700 -1,560 Descending Indianapolis Center
03:14PM 39.8906 -86.0606 225° Southwest 241 277 4,100 -840 Descending Indianapolis Center
03:15PM 39.8431 -86.1222 225° Southwest 238 274 4,000 -540 Descending Indianapolis Center
03:16PM 39.7964 -86.1825 225° Southwest 213 245 3,000 -960 Descending Indianapolis Center
03:17PM 39.7658 -86.2208 224° Southwest 176 203 2,100 -840 Descending Indianapolis Center
03:18PM 39.7361 -86.2592 225° Southwest 159 183 1,300 -660 Descending Indianapolis Center
03:19PM 39.7119 -86.2894 224° Southwest 149 171 800 -540 Descending Indianapolis Center
03:21PM 39.7167 -86.2833 229° Southwest  Level FlightAware Approximate